sensor_id;sensor_type;location;lat;lon;timestamp;temperature;humidity
26575;DHT22;67165;50.256;10.978;2023-05-13T00:01:11;10.10;98.00
26575;DHT22;67165;50.256;10.978;2023-05-13T00:03:36;10.00;98.00
26575;DHT22;67165;50.256;10.978;2023-05-13T00:06:02;9.90;98.00
26575;DHT22;67165;50.256;10.978;2023-05-13T00:08:28;9.90;98.00
26575;DHT22;67165;50.256;10.978;2023-05-13T00:10:54;9.90;98.00
26575;DHT22;67165;50.256;10.978;2023-05-13T00:13:19;9.90;98.00
26575;DHT22;67165;50.256;10.978;2023-05-13T00:15:45;9.90;98.00
26575;DHT22;67165;50.256;10.978;2023-05-13T00:18:11;9.80;98.00
26575;DHT22;67165;50.256;10.978;2023-05-13T00:20:36;9.80;98.00
26575;DHT22;67165;50.256;10.978;2023-05-13T00:23:02;9.80;98.00
26575;DHT22;67165;50.256;10.978;2023-05-13T00:25:28;9.80;98.00
26575;DHT22;67165;50.256;10.978;2023-05-13T00:27:54;9.80;98.00
26575;DHT22;67165;50.256;10.978;2023-05-13T00:30:19;9.80;98.00
26575;DHT22;67165;50.256;10.978;2023-05-13T00:32:45;9.80;98.00
26575;DHT22;67165;50.256;10.978;2023-05-13T00:35:11;9.90;98.00
26575;DHT22;67165;50.256;10.978;2023-05-13T00:37:36;9.90;98.00
26575;DHT22;67165;50.256;10.978;2023-05-13T00:40:02;10.00;98.00
26575;DHT22;67165;50.256;10.978;2023-05-13T00:42:28;10.00;98.00
26575;DHT22;67165;50.256;10.978;2023-05-13T00:44:54;10.10;98.00
26575;DHT22;67165;50.256;10.978;2023-05-13T00:47:20;10.10;98.00
26575;DHT22;67165;50.256;10.978;2023-05-13T00:49:46;10.10;98.00
26575;DHT22;67165;50.256;10.978;2023-05-13T00:52:12;10.10;98.00
26575;DHT22;67165;50.256;10.978;2023-05-13T00:54:38;10.10;98.00
26575;DHT22;67165;50.256;10.978;2023-05-13T00:57:04;10.10;98.00
26575;DHT22;67165;50.256;10.978;2023-05-13T00:59:30;10.10;98.00
26575;DHT22;67165;50.256;10.978;2023-05-13T01:13:00;10.10;98.00
26575;DHT22;67165;50.256;10.978;2023-05-13T01:15:28;10.00;98.00
26575;DHT22;67165;50.256;10.978;2023-05-13T01:18:04;10.00;98.00
26575;DHT22;67165;50.256;10.978;2023-05-13T01:20:30;10.00;98.00
26575;DHT22;67165;50.256;10.978;2023-05-13T01:22:57;10.00;98.00
26575;DHT22;67165;50.256;10.978;2023-05-13T01:25:23;9.90;98.00
26575;DHT22;67165;50.256;10.978;2023-05-13T01:27:53;9.90;98.00
26575;DHT22;67165;50.256;10.978;2023-05-13T01:30:20;9.90;98.00
26575;DHT22;67165;50.256;10.978;2023-05-13T01:32:46;9.90;98.00
26575;DHT22;67165;50.256;10.978;2023-05-13T01:35:13;9.90;98.00
26575;DHT22;67165;50.256;10.978;2023-05-13T01:37:40;9.80;98.00
26575;DHT22;67165;50.256;10.978;2023-05-13T01:40:06;9.80;98.00
26575;DHT22;67165;50.256;10.978;2023-05-13T01:42:32;9.80;98.00
26575;DHT22;67165;50.256;10.978;2023-05-13T01:44:59;9.80;98.00
26575;DHT22;67165;50.256;10.978;2023-05-13T01:47:25;9.80;98.00
26575;DHT22;67165;50.256;10.978;2023-05-13T01:49:51;9.80;98.00
26575;DHT22;67165;50.256;10.978;2023-05-13T01:52:17;9.80;98.00
26575;DHT22;67165;50.256;10.978;2023-05-13T01:54:43;9.80;98.00
26575;DHT22;67165;50.256;10.978;2023-05-13T01:57:09;9.80;98.00
26575;DHT22;67165;50.256;10.978;2023-05-13T01:59:34;9.80;98.00
26575;DHT22;67165;50.256;10.978;2023-05-13T02:02:00;9.80;98.00
26575;DHT22;67165;50.256;10.978;2023-05-13T02:04:26;9.70;98.00
26575;DHT22;67165;50.256;10.978;2023-05-13T02:06:51;9.70;98.00
26575;DHT22;67165;50.256;10.978;2023-05-13T02:09:17;9.70;98.00
26575;DHT22;67165;50.256;10.978;2023-05-13T02:11:44;9.70;98.00
26575;DHT22;67165;50.256;10.978;2023-05-13T02:14:10;9.60;98.00
26575;DHT22;67165;50.256;10.978;2023-05-13T02:16:36;9.60;98.00
26575;DHT22;67165;50.256;10.978;2023-05-13T02:19:02;9.60;98.00
26575;DHT22;67165;50.256;10.978;2023-05-13T02:21:27;9.60;98.00
26575;DHT22;67165;50.256;10.978;2023-05-13T02:23:53;9.60;98.00
26575;DHT22;67165;50.256;10.978;2023-05-13T02:26:19;9.60;98.00
26575;DHT22;67165;50.256;10.978;2023-05-13T02:28:45;9.50;98.00
26575;DHT22;67165;50.256;10.978;2023-05-13T02:31:10;9.50;98.00
26575;DHT22;67165;50.256;10.978;2023-05-13T02:33:36;9.40;98.00
26575;DHT22;67165;50.256;10.978;2023-05-13T02:36:02;9.40;98.00
26575;DHT22;67165;50.256;10.978;2023-05-13T02:38:27;9.40;98.00
26575;DHT22;67165;50.256;10.978;2023-05-13T02:40:53;9.30;98.00
26575;DHT22;67165;50.256;10.978;2023-05-13T02:43:19;9.30;98.00
26575;DHT22;67165;50.256;10.978;2023-05-13T02:45:45;9.30;98.00
26575;DHT22;67165;50.256;10.978;2023-05-13T02:48:11;9.30;98.00
26575;DHT22;67165;50.256;10.978;2023-05-13T02:50:37;9.20;98.00
26575;DHT22;67165;50.256;10.978;2023-05-13T02:53:03;9.10;98.00
26575;DHT22;67165;50.256;10.978;2023-05-13T02:55:29;9.10;98.00
26575;DHT22;67165;50.256;10.978;2023-05-13T02:57:55;9.10;98.00
26575;DHT22;67165;50.256;10.978;2023-05-13T03:00:21;9.10;98.00
26575;DHT22;67165;50.256;10.978;2023-05-13T03:02:47;9.20;98.00
26575;DHT22;67165;50.256;10.978;2023-05-13T03:05:12;9.30;98.00
26575;DHT22;67165;50.256;10.978;2023-05-13T03:07:38;9.30;98.00
26575;DHT22;67165;50.256;10.978;2023-05-13T03:10:04;9.40;98.00
26575;DHT22;67165;50.256;10.978;2023-05-13T03:12:30;9.40;98.00
26575;DHT22;67165;50.256;10.978;2023-05-13T03:14:56;9.40;98.00
26575;DHT22;67165;50.256;10.978;2023-05-13T03:17:22;9.60;98.00
26575;DHT22;67165;50.256;10.978;2023-05-13T03:19:47;9.60;98.00
26575;DHT22;67165;50.256;10.978;2023-05-13T03:22:13;9.70;98.00
26575;DHT22;67165;50.256;10.978;2023-05-13T03:24:39;9.70;98.00
26575;DHT22;67165;50.256;10.978;2023-05-13T03:27:04;9.70;98.00
26575;DHT22;67165;50.256;10.978;2023-05-13T03:29:30;9.70;98.00
26575;DHT22;67165;50.256;10.978;2023-05-13T03:31:55;9.80;98.00
26575;DHT22;67165;50.256;10.978;2023-05-13T03:34:21;9.90;98.00
26575;DHT22;67165;50.256;10.978;2023-05-13T03:36:47;9.90;98.00
26575;DHT22;67165;50.256;10.978;2023-05-13T03:39:12;10.00;98.00
26575;DHT22;67165;50.256;10.978;2023-05-13T03:41:38;10.10;98.00
26575;DHT22;67165;50.256;10.978;2023-05-13T03:44:04;10.10;98.00
26575;DHT22;67165;50.256;10.978;2023-05-13T03:46:29;10.10;98.00
26575;DHT22;67165;50.256;10.978;2023-05-13T03:48:56;10.10;98.00
26575;DHT22;67165;50.256;10.978;2023-05-13T03:51:22;10.10;98.00
26575;DHT22;67165;50.256;10.978;2023-05-13T03:53:47;10.10;98.00
26575;DHT22;67165;50.256;10.978;2023-05-13T03:56:13;10.10;98.00
26575;DHT22;67165;50.256;10.978;2023-05-13T03:58:39;10.20;98.00
26575;DHT22;67165;50.256;10.978;2023-05-13T04:01:06;10.20;98.00
26575;DHT22;67165;50.256;10.978;2023-05-13T04:03:31;10.30;98.00
26575;DHT22;67165;50.256;10.978;2023-05-13T04:05:57;10.40;98.00
26575;DHT22;67165;50.256;10.978;2023-05-13T04:08:23;10.50;98.00
26575;DHT22;67165;50.256;10.978;2023-05-13T04:10:48;10.50;98.00
26575;DHT22;67165;50.256;10.978;2023-05-13T04:13:14;10.60;98.00
26575;DHT22;67165;50.256;10.978;2023-05-13T04:15:39;10.60;98.00
26575;DHT22;67165;50.256;10.978;2023-05-13T04:18:05;10.70;98.00
26575;DHT22;67165;50.256;10.978;2023-05-13T04:20:31;10.80;98.00
26575;DHT22;67165;50.256;10.978;2023-05-13T04:22:56;10.90;98.00
26575;DHT22;67165;50.256;10.978;2023-05-13T04:25:22;10.90;98.00
26575;DHT22;67165;50.256;10.978;2023-05-13T04:27:48;11.00;98.00
26575;DHT22;67165;50.256;10.978;2023-05-13T04:30:13;11.10;98.00
26575;DHT22;67165;50.256;10.978;2023-05-13T04:32:40;11.30;98.00
26575;DHT22;67165;50.256;10.978;2023-05-13T04:35:06;11.40;98.00
26575;DHT22;67165;50.256;10.978;2023-05-13T04:37:32;11.40;98.00
26575;DHT22;67165;50.256;10.978;2023-05-13T04:39:58;11.40;98.00
26575;DHT22;67165;50.256;10.978;2023-05-13T04:42:24;11.50;98.00
26575;DHT22;67165;50.256;10.978;2023-05-13T04:44:50;11.50;98.00
26575;DHT22;67165;50.256;10.978;2023-05-13T04:47:15;11.60;98.00
26575;DHT22;67165;50.256;10.978;2023-05-13T04:49:41;11.70;98.00
26575;DHT22;67165;50.256;10.978;2023-05-13T04:52:07;11.80;98.00
26575;DHT22;67165;50.256;10.978;2023-05-13T04:54:33;11.90;98.00
26575;DHT22;67165;50.256;10.978;2023-05-13T04:57:01;12.00;98.00
26575;DHT22;67165;50.256;10.978;2023-05-13T04:59:26;12.00;98.00
26575;DHT22;67165;50.256;10.978;2023-05-13T05:01:52;12.20;98.00
26575;DHT22;67165;50.256;10.978;2023-05-13T05:04:19;12.30;98.00
26575;DHT22;67165;50.256;10.978;2023-05-13T05:06:44;12.60;98.00
26575;DHT22;67165;50.256;10.978;2023-05-13T05:09:10;13.20;98.00
26575;DHT22;67165;50.256;10.978;2023-05-13T05:11:37;13.60;98.00
26575;DHT22;67165;50.256;10.978;2023-05-13T05:14:02;14.20;98.00
26575;DHT22;67165;50.256;10.978;2023-05-13T05:16:28;14.50;98.00
26575;DHT22;67165;50.256;10.978;2023-05-13T05:18:54;14.90;98.00
26575;DHT22;67165;50.256;10.978;2023-05-13T05:21:19;15.00;98.00
26575;DHT22;67165;50.256;10.978;2023-05-13T05:23:45;15.20;98.00
26575;DHT22;67165;50.256;10.978;2023-05-13T05:26:11;15.30;98.00
26575;DHT22;67165;50.256;10.978;2023-05-13T05:28:37;15.40;98.00
26575;DHT22;67165;50.256;10.978;2023-05-13T05:31:04;15.40;98.00
26575;DHT22;67165;50.256;10.978;2023-05-13T05:33:30;15.40;98.00
26575;DHT22;67165;50.256;10.978;2023-05-13T05:35:56;15.50;98.00
26575;DHT22;67165;50.256;10.978;2023-05-13T05:38:22;15.30;98.00
26575;DHT22;67165;50.256;10.978;2023-05-13T05:40:50;15.20;98.00
26575;DHT22;67165;50.256;10.978;2023-05-13T05:43:16;15.10;98.00
26575;DHT22;67165;50.256;10.978;2023-05-13T05:45:42;15.30;98.00
26575;DHT22;67165;50.256;10.978;2023-05-13T05:48:08;15.30;98.00
26575;DHT22;67165;50.256;10.978;2023-05-13T05:50:34;15.50;98.00
26575;DHT22;67165;50.256;10.978;2023-05-13T05:53:01;15.60;98.00
26575;DHT22;67165;50.256;10.978;2023-05-13T05:55:27;15.40;98.00
26575;DHT22;67165;50.256;10.978;2023-05-13T05:57:54;15.50;98.00
26575;DHT22;67165;50.256;10.978;2023-05-13T06:00:20;15.60;98.00
26575;DHT22;67165;50.256;10.978;2023-05-13T06:02:46;15.50;98.00
26575;DHT22;67165;50.256;10.978;2023-05-13T06:05:13;15.50;98.00
26575;DHT22;67165;50.256;10.978;2023-05-13T06:07:39;15.40;98.00
26575;DHT22;67165;50.256;10.978;2023-05-13T06:10:05;15.60;98.00
26575;DHT22;67165;50.256;10.978;2023-05-13T06:12:31;15.70;98.00
26575;DHT22;67165;50.256;10.978;2023-05-13T06:14:57;16.00;98.00
26575;DHT22;67165;50.256;10.978;2023-05-13T06:17:23;16.10;98.00
26575;DHT22;67165;50.256;10.978;2023-05-13T06:19:49;16.00;98.00
26575;DHT22;67165;50.256;10.978;2023-05-13T06:22:15;16.30;98.00
26575;DHT22;67165;50.256;10.978;2023-05-13T06:24:40;16.50;98.00
26575;DHT22;67165;50.256;10.978;2023-05-13T06:27:09;16.40;98.00
26575;DHT22;67165;50.256;10.978;2023-05-13T06:29:36;16.50;98.00
26575;DHT22;67165;50.256;10.978;2023-05-13T06:32:02;16.50;98.00
26575;DHT22;67165;50.256;10.978;2023-05-13T06:34:28;16.60;98.00
26575;DHT22;67165;50.256;10.978;2023-05-13T06:36:53;16.40;98.00
26575;DHT22;67165;50.256;10.978;2023-05-13T06:39:19;16.60;98.00
26575;DHT22;67165;50.256;10.978;2023-05-13T06:41:45;17.00;98.00
26575;DHT22;67165;50.256;10.978;2023-05-13T06:44:10;17.30;98.00
26575;DHT22;67165;50.256;10.978;2023-05-13T06:46:36;17.40;98.00
26575;DHT22;67165;50.256;10.978;2023-05-13T06:49:02;17.70;98.00
26575;DHT22;67165;50.256;10.978;2023-05-13T06:51:27;17.80;98.00
26575;DHT22;67165;50.256;10.978;2023-05-13T06:53:53;18.00;98.00
26575;DHT22;67165;50.256;10.978;2023-05-13T06:56:19;17.80;98.00
26575;DHT22;67165;50.256;10.978;2023-05-13T06:58:50;17.70;98.00
26575;DHT22;67165;50.256;10.978;2023-05-13T07:01:16;17.90;98.00
26575;DHT22;67165;50.256;10.978;2023-05-13T07:03:42;17.90;98.00
26575;DHT22;67165;50.256;10.978;2023-05-13T07:06:08;17.80;98.00
26575;DHT22;67165;50.256;10.978;2023-05-13T07:08:34;17.90;98.00
26575;DHT22;67165;50.256;10.978;2023-05-13T07:10:59;17.90;98.00
26575;DHT22;67165;50.256;10.978;2023-05-13T07:13:25;17.90;98.00
26575;DHT22;67165;50.256;10.978;2023-05-13T07:15:51;17.40;98.00
26575;DHT22;67165;50.256;10.978;2023-05-13T07:18:17;17.40;98.00
26575;DHT22;67165;50.256;10.978;2023-05-13T07:20:43;17.30;98.00
26575;DHT22;67165;50.256;10.978;2023-05-13T07:23:08;17.60;98.00
26575;DHT22;67165;50.256;10.978;2023-05-13T07:25:34;17.80;98.00
26575;DHT22;67165;50.256;10.978;2023-05-13T07:28:00;18.10;98.00
26575;DHT22;67165;50.256;10.978;2023-05-13T07:30:25;18.40;98.00
26575;DHT22;67165;50.256;10.978;2023-05-13T07:32:51;18.40;98.00
26575;DHT22;67165;50.256;10.978;2023-05-13T07:35:17;18.30;98.00
26575;DHT22;67165;50.256;10.978;2023-05-13T07:37:45;18.30;98.00
26575;DHT22;67165;50.256;10.978;2023-05-13T07:40:12;18.40;98.00
26575;DHT22;67165;50.256;10.978;2023-05-13T07:42:39;18.40;98.00
26575;DHT22;67165;50.256;10.978;2023-05-13T07:45:06;18.60;98.00
26575;DHT22;67165;50.256;10.978;2023-05-13T07:47:32;18.30;98.00
26575;DHT22;67165;50.256;10.978;2023-05-13T07:49:58;18.50;98.00
26575;DHT22;67165;50.256;10.978;2023-05-13T07:52:24;18.70;98.00
26575;DHT22;67165;50.256;10.978;2023-05-13T07:54:49;19.10;98.00
26575;DHT22;67165;50.256;10.978;2023-05-13T07:57:15;19.60;98.00
26575;DHT22;67165;50.256;10.978;2023-05-13T07:59:41;19.50;98.00
26575;DHT22;67165;50.256;10.978;2023-05-13T08:02:06;19.60;98.00
26575;DHT22;67165;50.256;10.978;2023-05-13T08:04:33;19.80;98.00
26575;DHT22;67165;50.256;10.978;2023-05-13T08:07:00;19.80;98.00
26575;DHT22;67165;50.256;10.978;2023-05-13T08:09:26;19.70;98.00
26575;DHT22;67165;50.256;10.978;2023-05-13T08:11:52;19.50;97.70
26575;DHT22;67165;50.256;10.978;2023-05-13T08:14:19;19.50;98.00
26575;DHT22;67165;50.256;10.978;2023-05-13T08:16:44;19.50;98.00
26575;DHT22;67165;50.256;10.978;2023-05-13T08:19:12;19.40;98.00
26575;DHT22;67165;50.256;10.978;2023-05-13T08:21:38;19.70;98.00
26575;DHT22;67165;50.256;10.978;2023-05-13T08:24:04;20.20;98.00
26575;DHT22;67165;50.256;10.978;2023-05-13T08:26:30;20.40;98.00
26575;DHT22;67165;50.256;10.978;2023-05-13T08:28:56;20.30;96.90
26575;DHT22;67165;50.256;10.978;2023-05-13T08:31:22;20.20;98.00
26575;DHT22;67165;50.256;10.978;2023-05-13T08:33:52;19.60;98.00
26575;DHT22;67165;50.256;10.978;2023-05-13T08:36:19;18.80;98.00
26575;DHT22;67165;50.256;10.978;2023-05-13T08:38:45;18.50;98.00
26575;DHT22;67165;50.256;10.978;2023-05-13T08:41:11;18.80;98.00
26575;DHT22;67165;50.256;10.978;2023-05-13T08:43:38;19.10;98.00
26575;DHT22;67165;50.256;10.978;2023-05-13T08:46:05;19.20;98.00
26575;DHT22;67165;50.256;10.978;2023-05-13T08:48:33;19.50;98.00
26575;DHT22;67165;50.256;10.978;2023-05-13T08:50:59;19.90;98.00
26575;DHT22;67165;50.256;10.978;2023-05-13T08:53:26;20.00;98.00
26575;DHT22;67165;50.256;10.978;2023-05-13T08:55:53;19.70;98.00
26575;DHT22;67165;50.256;10.978;2023-05-13T08:58:19;19.70;98.00
26575;DHT22;67165;50.256;10.978;2023-05-13T09:00:46;19.80;98.00
26575;DHT22;67165;50.256;10.978;2023-05-13T09:03:13;19.00;98.00
26575;DHT22;67165;50.256;10.978;2023-05-13T09:05:40;19.20;98.00
26575;DHT22;67165;50.256;10.978;2023-05-13T09:08:07;19.20;98.00
26575;DHT22;67165;50.256;10.978;2023-05-13T09:10:33;18.90;98.00
26575;DHT22;67165;50.256;10.978;2023-05-13T09:12:59;18.60;98.00
26575;DHT22;67165;50.256;10.978;2023-05-13T09:15:26;18.70;98.00
26575;DHT22;67165;50.256;10.978;2023-05-13T09:17:55;18.90;98.00
26575;DHT22;67165;50.256;10.978;2023-05-13T09:20:21;18.90;98.00
26575;DHT22;67165;50.256;10.978;2023-05-13T09:23:06;18.70;98.00
26575;DHT22;67165;50.256;10.978;2023-05-13T09:25:32;18.50;98.00
26575;DHT22;67165;50.256;10.978;2023-05-13T09:28:01;18.40;98.00
26575;DHT22;67165;50.256;10.978;2023-05-13T09:30:38;18.60;98.00
26575;DHT22;67165;50.256;10.978;2023-05-13T09:33:12;18.80;98.00
26575;DHT22;67165;50.256;10.978;2023-05-13T09:35:43;19.20;98.00
26575;DHT22;67165;50.256;10.978;2023-05-13T09:38:16;19.50;98.00
26575;DHT22;67165;50.256;10.978;2023-05-13T09:40:55;19.80;98.00
26575;DHT22;67165;50.256;10.978;2023-05-13T09:43:26;19.80;98.00
26575;DHT22;67165;50.256;10.978;2023-05-13T09:45:57;19.50;98.00
26575;DHT22;67165;50.256;10.978;2023-05-13T09:48:26;19.50;98.00
26575;DHT22;67165;50.256;10.978;2023-05-13T09:50:53;19.40;98.00
26575;DHT22;67165;50.256;10.978;2023-05-13T09:53:19;19.20;98.00
26575;DHT22;67165;50.256;10.978;2023-05-13T09:55:49;19.30;98.00
26575;DHT22;67165;50.256;10.978;2023-05-13T09:58:15;19.30;98.00
26575;DHT22;67165;50.256;10.978;2023-05-13T10:00:42;19.10;98.00
26575;DHT22;67165;50.256;10.978;2023-05-13T10:03:09;19.20;98.00
26575;DHT22;67165;50.256;10.978;2023-05-13T10:05:37;19.20;98.00
26575;DHT22;67165;50.256;10.978;2023-05-13T10:08:04;19.30;98.00
26575;DHT22;67165;50.256;10.978;2023-05-13T10:10:31;19.00;98.00
26575;DHT22;67165;50.256;10.978;2023-05-13T10:13:07;18.70;98.00
26575;DHT22;67165;50.256;10.978;2023-05-13T10:15:35;18.60;98.00
26575;DHT22;67165;50.256;10.978;2023-05-13T10:18:04;18.50;98.00
26575;DHT22;67165;50.256;10.978;2023-05-13T10:20:30;18.40;98.00
26575;DHT22;67165;50.256;10.978;2023-05-13T10:22:57;18.30;98.00
26575;DHT22;67165;50.256;10.978;2023-05-13T10:25:23;18.00;98.00
26575;DHT22;67165;50.256;10.978;2023-05-13T10:27:50;17.90;98.00
26575;DHT22;67165;50.256;10.978;2023-05-13T10:30:18;17.60;98.00
26575;DHT22;67165;50.256;10.978;2023-05-13T10:32:44;17.30;98.00
26575;DHT22;67165;50.256;10.978;2023-05-13T10:35:14;17.00;98.00
26575;DHT22;67165;50.256;10.978;2023-05-13T10:43:26;16.30;98.00
26575;DHT22;67165;50.256;10.978;2023-05-13T10:45:59;16.20;98.00
26575;DHT22;67165;50.256;10.978;2023-05-13T10:48:24;16.20;98.00
26575;DHT22;67165;50.256;10.978;2023-05-13T10:50:55;16.20;98.00
26575;DHT22;67165;50.256;10.978;2023-05-13T10:53:24;16.10;98.00
26575;DHT22;67165;50.256;10.978;2023-05-13T10:55:57;16.00;98.00
26575;DHT22;67165;50.256;10.978;2023-05-13T10:58:30;16.00;98.00
26575;DHT22;67165;50.256;10.978;2023-05-13T11:01:16;16.00;98.00
26575;DHT22;67165;50.256;10.978;2023-05-13T11:03:56;16.00;98.00
26575;DHT22;67165;50.256;10.978;2023-05-13T11:06:27;16.00;98.00
26575;DHT22;67165;50.256;10.978;2023-05-13T11:08:53;16.00;98.00
26575;DHT22;67165;50.256;10.978;2023-05-13T11:11:24;16.00;98.00
26575;DHT22;67165;50.256;10.978;2023-05-13T11:16:23;16.00;98.00
26575;DHT22;67165;50.256;10.978;2023-05-13T11:18:50;16.00;98.00
26575;DHT22;67165;50.256;10.978;2023-05-13T11:21:17;15.90;98.00
26575;DHT22;67165;50.256;10.978;2023-05-13T11:24:03;15.70;98.00
26575;DHT22;67165;50.256;10.978;2023-05-13T11:26:50;15.30;98.00
26575;DHT22;67165;50.256;10.978;2023-05-13T11:29:33;14.90;98.00
26575;DHT22;67165;50.256;10.978;2023-05-13T11:32:01;14.80;98.00
26575;DHT22;67165;50.256;10.978;2023-05-13T11:34:27;14.80;98.00
26575;DHT22;67165;50.256;10.978;2023-05-13T11:39:28;14.70;98.00
26575;DHT22;67165;50.256;10.978;2023-05-13T11:41:54;14.60;98.00
26575;DHT22;67165;50.256;10.978;2023-05-13T11:44:23;14.70;98.00
26575;DHT22;67165;50.256;10.978;2023-05-13T11:47:01;14.60;98.00
26575;DHT22;67165;50.256;10.978;2023-05-13T11:49:37;14.60;98.00
26575;DHT22;67165;50.256;10.978;2023-05-13T12:02:37;14.70;98.00
26575;DHT22;67165;50.256;10.978;2023-05-13T12:05:09;14.80;98.00
26575;DHT22;67165;50.256;10.978;2023-05-13T12:07:36;14.90;98.00
26575;DHT22;67165;50.256;10.978;2023-05-13T12:10:04;15.10;98.00
26575;DHT22;67165;50.256;10.978;2023-05-13T12:12:32;15.30;98.00
26575;DHT22;67165;50.256;10.978;2023-05-13T12:15:01;15.50;98.00
26575;DHT22;67165;50.256;10.978;2023-05-13T12:17:28;15.50;98.00
26575;DHT22;67165;50.256;10.978;2023-05-13T12:22:29;15.50;98.00
26575;DHT22;67165;50.256;10.978;2023-05-13T12:24:55;15.50;98.00
26575;DHT22;67165;50.256;10.978;2023-05-13T12:27:25;15.60;98.00
26575;DHT22;67165;50.256;10.978;2023-05-13T12:29:54;15.80;98.00
26575;DHT22;67165;50.256;10.978;2023-05-13T12:32:19;15.80;98.00
26575;DHT22;67165;50.256;10.978;2023-05-13T12:34:48;15.90;98.00
26575;DHT22;67165;50.256;10.978;2023-05-13T12:37:14;15.90;98.00
26575;DHT22;67165;50.256;10.978;2023-05-13T12:39:44;15.90;98.00
26575;DHT22;67165;50.256;10.978;2023-05-13T12:42:14;15.90;98.00
26575;DHT22;67165;50.256;10.978;2023-05-13T12:44:44;15.90;98.00
26575;DHT22;67165;50.256;10.978;2023-05-13T12:47:10;15.90;98.00
26575;DHT22;67165;50.256;10.978;2023-05-13T12:49:53;16.10;98.00
26575;DHT22;67165;50.256;10.978;2023-05-13T12:52:19;16.30;98.00
26575;DHT22;67165;50.256;10.978;2023-05-13T12:54:45;16.50;98.00
26575;DHT22;67165;50.256;10.978;2023-05-13T12:57:10;16.60;98.00
26575;DHT22;67165;50.256;10.978;2023-05-13T12:59:36;16.80;98.00
26575;DHT22;67165;50.256;10.978;2023-05-13T13:02:01;17.00;98.00
26575;DHT22;67165;50.256;10.978;2023-05-13T13:04:30;17.10;98.00
26575;DHT22;67165;50.256;10.978;2023-05-13T13:06:56;17.30;98.00
26575;DHT22;67165;50.256;10.978;2023-05-13T13:09:21;17.40;98.00
26575;DHT22;67165;50.256;10.978;2023-05-13T13:11:47;17.30;98.00
26575;DHT22;67165;50.256;10.978;2023-05-13T13:14:12;17.50;98.00
26575;DHT22;67165;50.256;10.978;2023-05-13T13:16:38;17.50;98.00
26575;DHT22;67165;50.256;10.978;2023-05-13T13:19:04;17.40;98.00
26575;DHT22;67165;50.256;10.978;2023-05-13T13:21:29;17.50;98.00
26575;DHT22;67165;50.256;10.978;2023-05-13T13:23:55;17.20;98.00
26575;DHT22;67165;50.256;10.978;2023-05-13T13:26:21;17.40;98.00
26575;DHT22;67165;50.256;10.978;2023-05-13T13:28:47;17.50;98.00
26575;DHT22;67165;50.256;10.978;2023-05-13T13:31:13;17.40;98.00
26575;DHT22;67165;50.256;10.978;2023-05-13T13:33:38;17.40;98.00
26575;DHT22;67165;50.256;10.978;2023-05-13T13:36:04;17.20;98.00
26575;DHT22;67165;50.256;10.978;2023-05-13T13:38:30;17.20;98.00
26575;DHT22;67165;50.256;10.978;2023-05-13T13:40:56;17.30;98.00
26575;DHT22;67165;50.256;10.978;2023-05-13T13:43:21;17.40;98.00
26575;DHT22;67165;50.256;10.978;2023-05-13T13:45:47;17.60;98.00
26575;DHT22;67165;50.256;10.978;2023-05-13T13:48:13;17.70;98.00
26575;DHT22;67165;50.256;10.978;2023-05-13T13:50:39;17.80;98.00
26575;DHT22;67165;50.256;10.978;2023-05-13T13:53:04;17.80;98.00
26575;DHT22;67165;50.256;10.978;2023-05-13T13:55:30;17.80;98.00
26575;DHT22;67165;50.256;10.978;2023-05-13T13:57:56;17.60;98.00
26575;DHT22;67165;50.256;10.978;2023-05-13T14:00:21;17.50;98.00
26575;DHT22;67165;50.256;10.978;2023-05-13T14:02:47;17.20;98.00
26575;DHT22;67165;50.256;10.978;2023-05-13T14:05:13;17.10;98.00
26575;DHT22;67165;50.256;10.978;2023-05-13T14:07:39;17.00;98.00
26575;DHT22;67165;50.256;10.978;2023-05-13T14:10:05;16.70;98.00
26575;DHT22;67165;50.256;10.978;2023-05-13T14:12:31;16.50;98.00
26575;DHT22;67165;50.256;10.978;2023-05-13T14:14:57;16.20;98.00
26575;DHT22;67165;50.256;10.978;2023-05-13T14:17:24;16.30;98.00
26575;DHT22;67165;50.256;10.978;2023-05-13T14:19:50;16.10;98.00
26575;DHT22;67165;50.256;10.978;2023-05-13T14:22:16;16.00;98.00
26575;DHT22;67165;50.256;10.978;2023-05-13T14:24:42;16.10;98.00
26575;DHT22;67165;50.256;10.978;2023-05-13T14:27:08;16.10;98.00
26575;DHT22;67165;50.256;10.978;2023-05-13T14:29:33;16.30;98.00
26575;DHT22;67165;50.256;10.978;2023-05-13T14:31:59;16.50;98.00
26575;DHT22;67165;50.256;10.978;2023-05-13T14:34:27;16.60;98.00
26575;DHT22;67165;50.256;10.978;2023-05-13T14:36:52;16.80;98.00
26575;DHT22;67165;50.256;10.978;2023-05-13T14:39:18;17.00;98.00
26575;DHT22;67165;50.256;10.978;2023-05-13T14:41:44;17.10;98.00
26575;DHT22;67165;50.256;10.978;2023-05-13T14:44:11;17.20;98.00
26575;DHT22;67165;50.256;10.978;2023-05-13T14:46:37;17.50;98.00
26575;DHT22;67165;50.256;10.978;2023-05-13T14:49:04;17.50;98.00
26575;DHT22;67165;50.256;10.978;2023-05-13T14:51:30;17.70;98.00
26575;DHT22;67165;50.256;10.978;2023-05-13T14:53:56;17.70;98.00
26575;DHT22;67165;50.256;10.978;2023-05-13T14:56:21;17.80;98.00
26575;DHT22;67165;50.256;10.978;2023-05-13T14:58:47;17.70;98.00
26575;DHT22;67165;50.256;10.978;2023-05-13T15:01:13;17.80;98.00
26575;DHT22;67165;50.256;10.978;2023-05-13T15:03:38;17.90;98.00
26575;DHT22;67165;50.256;10.978;2023-05-13T15:06:05;17.90;98.00
26575;DHT22;67165;50.256;10.978;2023-05-13T15:08:30;18.00;98.00
26575;DHT22;67165;50.256;10.978;2023-05-13T15:10:58;17.90;98.00
26575;DHT22;67165;50.256;10.978;2023-05-13T15:13:23;17.80;98.00
26575;DHT22;67165;50.256;10.978;2023-05-13T15:15:51;17.60;98.00
26575;DHT22;67165;50.256;10.978;2023-05-13T15:18:17;17.60;98.00
26575;DHT22;67165;50.256;10.978;2023-05-13T15:20:42;17.60;98.00
26575;DHT22;67165;50.256;10.978;2023-05-13T15:23:09;17.70;98.00
26575;DHT22;67165;50.256;10.978;2023-05-13T15:25:35;17.80;98.00
26575;DHT22;67165;50.256;10.978;2023-05-13T15:28:01;17.80;98.00
26575;DHT22;67165;50.256;10.978;2023-05-13T15:30:27;17.70;98.00
26575;DHT22;67165;50.256;10.978;2023-05-13T15:32:53;17.70;98.00
26575;DHT22;67165;50.256;10.978;2023-05-13T15:35:18;17.70;98.00
26575;DHT22;67165;50.256;10.978;2023-05-13T15:37:44;17.60;98.00
26575;DHT22;67165;50.256;10.978;2023-05-13T15:40:10;17.50;98.00
26575;DHT22;67165;50.256;10.978;2023-05-13T15:42:36;17.70;98.00
26575;DHT22;67165;50.256;10.978;2023-05-13T15:45:02;17.80;98.00
26575;DHT22;67165;50.256;10.978;2023-05-13T15:47:27;17.80;98.00
26575;DHT22;67165;50.256;10.978;2023-05-13T15:49:53;17.60;98.00